Sanibel, Florida
Current Conditions -  °F | °C
As of 5:53 PM on Friday 28 Nov 2014 (Local Time) from KFMY Reporting Station
Clear Clear  
Wind Chill: 58°   Ceiling: Unl
Heat Index: 58°   Visibility: 10mi
Dew Point: 39°   Wind: 6mph
Humidity: 49%   Direction: 30°NNE
Pressure: 30.22"   Gusts: NA
Location:  26.44°N, 82.07°W
Report Text: KFMY 282253Z 03005KT 10SM CLR 14/04 A3022 RMK AO2 SLP234 T01440039
Loading
Personal Weather Stations






























Interactive Weather Map New forecast layout! Learn more

10-Day Weather Forecast

Advertisements
Track Severe Weather on mobile